Time;durP1;ratioP1;P1;durP2;ratioP2;P2;SDS_P1;SDS_P2;PMS_P1;PMS_P2;Temp;Humidity;BMP_temperature;BMP_pressure;BME280_temperature;BME280_humidity;BME280_pressure;Samples;Min_cycle;Max_cycle;Signal;HPM_P1;HPM_P2
2022/06/13 00:00:28;;;;;;;4.75;4.35;;;;;;;16.40;100.00;100294.03;1750206;81;20952;-41
2022/06/13 00:02:55;;;;;;;10.20;4.80;;;;;;;16.34;100.00;100293.39;1749904;82;20948;-41
2022/06/13 00:05:23;;;;;;;8.20;4.85;;;;;;;16.31;100.00;100300.06;1750369;82;21007;-41
2022/06/13 00:07:50;;;;;;;11.80;5.08;;;;;;;16.27;100.00;100302.41;1750038;82;21249;-41
2022/06/13 00:10:19;;;;;;;8.10;5.08;;;;;;;16.23;100.00;100309.55;1722634;82;20884;-41
2022/06/13 00:12:46;;;;;;;6.28;4.67;;;;;;;16.20;100.00;100304.46;1749996;82;20940;-41
2022/06/13 00:15:15;;;;;;;5.70;4.80;;;;;;;16.19;100.00;100303.21;1749990;82;21534;-41
2022/06/13 00:17:43;;;;;;;11.75;5.65;;;;;;;16.16;100.00;100305.96;1749983;80;20960;-41
2022/06/13 00:20:10;;;;;;;5.80;5.20;;;;;;;16.14;100.00;100299.48;1739184;82;21091;-42
2022/06/13 00:22:37;;;;;;;5.45;4.92;;;;;;;16.13;100.00;100297.80;1750014;82;20944;-41
2022/06/13 00:25:07;;;;;;;6.08;5.28;;;;;;;16.13;100.00;100302.19;1736416;81;20984;-41
2022/06/13 00:27:33;;;;;;;4.87;4.55;;;;;;;16.12;100.00;100304.41;1736035;82;20960;-41
2022/06/13 00:30:00;;;;;;;5.92;5.12;;;;;;;16.09;100.00;100308.85;1736112;82;20885;-41
2022/06/13 00:32:27;;;;;;;4.92;4.53;;;;;;;16.07;100.00;100309.38;1735993;82;22041;-41
2022/06/13 00:34:53;;;;;;;6.47;5.10;;;;;;;16.05;100.00;100305.98;1735907;82;20932;-41
2022/06/13 00:37:20;;;;;;;5.75;5.08;;;;;;;16.04;100.00;100308.21;1736018;82;20937;-41
2022/06/13 00:39:47;;;;;;;6.65;4.72;;;;;;;16.02;100.00;100305.27;1736039;81;20894;-41
2022/06/13 00:42:21;;;;;;;8.60;5.40;;;;;;;16.00;100.00;100305.31;1736072;81;20960;-41
2022/06/13 00:45:14;;;;;;;6.83;4.80;;;;;;;15.99;100.00;100302.31;1736227;82;21249;-40
2022/06/13 00:47:43;;;;;;;5.97;5.22;;;;;;;15.97;100.00;100300.70;1736053;82;20889;-40
2022/06/13 00:50:20;;;;;;;7.70;5.15;;;;;;;15.97;100.00;100300.23;1736003;82;20861;-40
2022/06/13 00:52:53;;;;;;;5.05;4.65;;;;;;;15.97;100.00;100310.67;1728866;82;21031;-41
2022/06/13 00:55:28;;;;;;;6.30;5.33;;;;;;;15.96;100.00;100309.45;1736057;82;20949;-43
2022/06/13 00:57:55;;;;;;;6.45;4.97;;;;;;;15.94;100.00;100310.81;1735732;82;21315;-41
2022/06/13 01:00:22;;;;;;;7.33;5.37;;;;;;;15.92;100.00;100310.89;1735901;82;21491;-42
2022/06/13 01:02:50;;;;;;;7.85;5.33;;;;;;;15.89;100.00;100309.70;1735940;82;20984;-42
2022/06/13 01:05:22;;;;;;;5.03;4.53;;;;;;;15.85;100.00;100305.97;1735816;81;20866;-42
2022/06/13 01:07:51;;;;;;;6.17;4.87;;;;;;;15.80;100.00;100305.71;1735835;82;20909;-42
2022/06/13 01:13:05;;;;;;;8.65;5.05;;;;;;;15.75;100.00;100305.03;1736094;82;20913;-41
2022/06/13 01:16:13;;;;;;;12.30;5.30;;;;;;;15.73;100.00;100308.17;1735863;82;21412;-41
2022/06/13 01:19:04;;;;;;;5.33;4.87;;;;;;;15.71;100.00;100307.39;1713506;82;20940;-41
2022/06/13 01:21:43;;;;;;;6.10;5.22;;;;;;;15.70;100.00;100299.17;1735955;82;20964;-43
2022/06/13 01:24:26;;;;;;;7.12;5.33;;;;;;;15.70;100.00;100308.30;1735806;81;21261;-41
2022/06/13 01:27:36;;;;;;;3.62;3.33;;;;;;;15.69;100.00;100300.55;1736072;82;20921;-40
2022/06/13 01:30:45;;;;;;;6.40;5.03;;;;;;;15.64;100.00;100303.34;1735930;82;20940;-42
2022/06/13 01:33:35;;;;;;;8.13;4.97;;;;;;;15.60;100.00;100307.84;1735986;82;20992;-42
2022/06/13 01:36:14;;;;;;;5.87;5.20;;;;;;;15.60;100.00;100304.39;1735932;81;21031;-42
2022/06/13 01:39:00;;;;;;;8.70;5.53;;;;;;;15.61;100.00;100310.00;1735708;81;21345;-41
2022/06/13 01:41:39;;;;;;;6.30;5.45;;;;;;;15.58;100.00;100307.05;1736265;82;20937;-40
2022/06/13 01:44:35;;;;;;;5.85;5.05;;;;;;;15.56;100.00;100300.22;1735832;82;20980;-40
2022/06/13 01:47:40;;;;;;;;;;;;;;;15.53;100.00;100307.70;1739305;81;20857;-41
2022/06/13 01:50:30;;;;;;;7.53;5.33;;;;;;;15.52;100.00;100302.09;1736097;81;20467;-41
2022/06/13 01:53:18;;;;;;;8.48;5.53;;;;;;;15.55;100.00;100293.31;1735693;81;22382;-40
2022/06/13 01:55:57;;;;;;;13.80;5.95;;;;;;;15.57;100.00;100298.01;1696318;82;20889;-40
2022/06/13 01:58:42;;;;;;;12.00;5.72;;;;;;;15.58;100.00;100291.87;1736108;82;21489;-41
2022/06/13 02:01:32;;;;;;;8.48;6.17;;;;;;;15.59;100.00;100298.78;1735816;82;21510;-41
2022/06/13 02:04:21;;;;;;;6.75;5.42;;;;;;;15.61;100.00;100295.66;1736005;82;20889;-41
2022/06/13 02:06:55;;;;;;;9.73;5.45;;;;;;;15.62;100.00;100292.13;1736004;82;20905;-41
2022/06/13 02:09:28;;;;;;;11.03;5.70;;;;;;;15.63;100.00;100296.44;1735941;82;21012;-41
2022/06/13 02:11:55;;;;;;;11.55;5.53;;;;;;;15.61;100.00;100295.66;1714997;82;21576;-41
2022/06/13 02:14:31;;;;;;;10.72;5.28;;;;;;;15.61;100.00;100307.39;1735764;82;20903;-42
2022/06/13 02:17:14;;;;;;;6.03;5.45;;;;;;;15.63;100.00;100302.95;1736216;82;20862;-41
2022/06/13 02:19:57;;;;;;;5.55;5.10;;;;;;;15.66;100.00;100307.60;1735869;82;20981;-41
2022/06/13 02:22:32;;;;;;;5.65;5.10;;;;;;;15.71;100.00;100312.61;1735857;82;20964;-41
2022/06/13 02:25:35;;;;;;;5.53;5.00;;;;;;;15.72;100.00;100309.08;1736096;81;20938;-42
2022/06/13 02:28:13;;;;;;;5.17;4.78;;;;;;;15.73;100.00;100305.56;1735876;82;21011;-42
2022/06/13 02:30:44;;;;;;;8.45;5.65;;;;;;;15.75;100.00;100312.03;1735927;82;20937;-41
2022/06/13 02:33:24;;;;;;;11.18;5.55;;;;;;;15.75;100.00;100310.25;1736005;82;20842;-41
2022/06/13 02:35:58;;;;;;;10.10;5.10;;;;;;;15.75;100.00;100314.64;1734318;82;20917;-41
2022/06/13 02:38:31;;;;;;;11.40;5.35;;;;;;;15.73;100.00;100316.00;1731667;81;20910;-41
2022/06/13 02:41:02;;;;;;;7.22;5.70;;;;;;;15.73;100.00;100313.39;1735260;82;20996;-41
2022/06/13 02:43:52;;;;;;;5.85;5.25;;;;;;;15.73;100.00;100308.17;1735921;81;20917;-41
2022/06/13 02:46:39;;;;;;;7.47;5.75;;;;;;;15.74;100.00;100311.17;1736530;81;21104;-41
2022/06/13 02:49:24;;;;;;;7.12;5.42;;;;;;;15.78;100.00;100324.47;1735948;81;20921;-41
2022/06/13 02:52:22;;;;;;;10.20;5.65;;;;;;;15.81;100.00;100326.11;1735872;81;20985;-41
2022/06/13 02:54:53;;;;;;;6.45;5.65;;;;;;;15.87;100.00;100327.16;1729294;82;20997;-41
2022/06/13 02:57:35;;;;;;;5.78;5.10;;;;;;;15.90;100.00;100329.66;1735941;82;20885;-41
2022/06/13 03:00:27;;;;;;;6.15;5.37;;;;;;;15.94;100.00;100329.08;1735900;82;21236;-42
2022/06/13 03:03:23;;;;;;;5.70;5.20;;;;;;;15.99;100.00;100324.50;1735423;82;20972;-41
2022/06/13 03:05:57;;;;;;;;;;;;;;;16.07;100.00;100333.31;1738493;81;20921;-41
2022/06/13 03:08:38;;;;;;;6.00;5.40;;;;;;;16.15;100.00;100339.52;1736011;81;20440;-41
2022/06/13 03:11:26;;;;;;;7.70;5.42;;;;;;;16.23;100.00;100334.80;1736072;82;20937;-41
2022/06/13 03:14:02;;;;;;;11.93;5.30;;;;;;;16.30;100.00;100331.46;1736024;82;21070;-41
2022/06/13 03:16:53;;;;;;;11.85;5.67;;;;;;;16.38;100.00;100331.52;1736209;82;20992;-41
2022/06/13 03:19:40;;;;;;;8.73;5.15;;;;;;;16.47;100.00;100329.40;1736111;81;20881;-40
2022/06/13 03:22:18;;;;;;;5.67;5.28;;;;;;;16.58;100.00;100332.83;1736105;82;20948;-41
2022/06/13 03:25:10;;;;;;;7.87;5.60;;;;;;;16.71;100.00;100334.42;1741382;81;20968;-41
2022/06/13 03:27:42;;;;;;;10.75;4.90;;;;;;;16.81;100.00;100333.93;1750011;82;21164;-41
2022/06/13 03:30:13;;;;;;;7.08;5.30;;;;;;;16.93;100.00;100331.20;1749955;82;21015;-41
2022/06/13 03:35:49;;;;;;;6.95;5.30;;;;;;;17.20;100.00;100328.70;1750047;82;20932;-41
2022/06/13 03:38:21;;;;;;;15.40;5.65;;;;;;;17.41;100.00;100327.23;1750158;82;20921;-41
2022/06/13 03:40:51;;;;;;;17.30;5.62;;;;;;;17.63;100.00;100336.20;1750117;82;21145;-41
2022/06/13 03:43:26;;;;;;;8.65;5.30;;;;;;;17.90;100.00;100333.94;1749743;81;20991;-41
2022/06/13 03:46:13;;;;;;;7.50;4.45;;;;;;;18.20;100.00;100335.95;1722571;82;21466;-41
2022/06/13 03:48:52;;;;;;;13.22;5.08;;;;;;;18.52;100.00;100332.08;1743607;82;20901;-41
2022/06/13 03:51:26;;;;;;;18.95;11.12;;;;;;;18.85;100.00;100336.89;1750149;82;20825;-41
2022/06/13 03:54:08;;;;;;;28.12;5.62;;;;;;;19.09;100.00;100339.94;1750224;82;21317;-42
2022/06/13 03:56:43;;;;;;;7.75;4.97;;;;;;;19.30;99.65;100340.98;1749928;82;21534;-42
2022/06/13 03:59:15;;;;;;;14.20;7.45;;;;;;;19.52;98.83;100334.02;1750045;81;21011;-41
2022/06/13 04:02:05;;;;;;;6.62;4.45;;;;;;;19.79;96.50;100335.13;1749987;82;21542;-42
2022/06/13 04:04:39;;;;;;;6.75;4.72;;;;;;;20.04;96.61;100334.52;1749021;82;21427;-41
2022/06/13 04:07:06;;;;;;;4.87;4.42;;;;;;;20.32;94.05;100339.41;1750181;82;21859;-42
2022/06/13 04:09:36;;;;;;;4.50;3.35;;;;;;;20.50;92.22;100344.02;1750070;82;20971;-42
2022/06/13 04:12:34;;;;;;;6.80;4.25;;;;;;;20.70;90.84;100339.77;1749978;82;21593;-42
2022/06/13 04:15:22;;;;;;;6.33;4.08;;;;;;;20.89;89.28;100340.33;1749713;82;20869;-42
2022/06/13 04:18:13;;;;;;;10.95;4.55;;;;;;;21.13;88.00;100350.22;1750103;82;21016;-42
2022/06/13 04:21:06;;;;;;;16.57;4.62;;;;;;;21.34;87.51;100340.53;1750062;82;21268;-42
2022/06/13 04:24:08;;;;;;;15.20;4.70;;;;;;;21.63;86.00;100339.09;1750005;80;21490;-42
2022/06/13 04:26:47;;;;;;;10.63;4.17;;;;;;;21.94;83.97;100343.63;1749650;82;20893;-42
2022/06/13 04:29:28;;;;;;;9.08;3.77;;;;;;;22.06;81.60;100331.41;1721946;82;20984;-41
2022/06/13 04:31:59;;;;;;;4.47;3.60;;;;;;;22.21;80.66;100338.72;1750067;82;20901;-41
2022/06/13 04:34:30;;;;;;;7.30;3.60;;;;;;;22.47;80.62;100340.04;1750015;82;21730;-42
2022/06/13 04:36:57;;;;;;;5.22;3.45;;;;;;;22.72;78.89;100340.94;1749863;82;20983;-42
2022/06/13 04:39:27;;;;;;;7.05;3.45;;;;;;;22.92;77.44;100346.08;1750123;82;21581;-42
2022/06/13 04:41:54;;;;;;;6.85;3.50;;;;;;;22.97;76.51;100345.27;1750051;82;20972;-41
2022/06/13 04:44:23;;;;;;;18.57;4.65;;;;;;;23.03;75.60;100351.44;1750222;82;21402;-41
2022/06/13 04:46:50;;;;;;;5.55;3.52;;;;;;;23.07;74.64;100346.77;1749964;82;21801;-41
2022/06/13 04:49:46;;;;;;;8.68;3.80;;;;;;;23.14;74.69;100345.38;1749984;82;21058;-42
2022/06/13 04:52:17;;;;;;;4.90;3.70;;;;;;;23.24;74.38;100342.41;1750043;80;20888;-42
2022/06/13 04:55:00;;;;;;;10.38;4.17;;;;;;;23.29;73.77;100336.84;1749831;81;20868;-41
2022/06/13 04:57:27;;;;;;;9.93;4.10;;;;;;;23.36;74.35;100342.48;1739735;82;20857;-41
2022/06/13 04:59:54;;;;;;;9.43;3.55;;;;;;;23.57;73.70;100336.55;1750175;82;21256;-42
2022/06/13 05:02:24;;;;;;;7.55;3.72;;;;;;;23.80;72.67;100342.26;1739227;82;20995;-41
2022/06/13 05:04:51;;;;;;;12.95;4.10;;;;;;;23.97;73.09;100343.60;1750179;82;21482;-41
2022/06/13 05:07:21;;;;;;;5.30;3.83;;;;;;;24.28;72.04;100352.31;1749874;81;20944;-41
2022/06/13 05:10:00;;;;;;;6.80;3.62;;;;;;;24.55;70.39;100347.13;1749974;82;20893;-41
2022/06/13 05:12:40;;;;;;;4.90;4.00;;;;;;;24.82;69.95;100351.21;1749916;82;21144;-42
2022/06/13 05:15:23;;;;;;;14.95;4.70;;;;;;;25.09;68.91;100351.25;1749673;81;20948;-43
2022/06/13 05:18:08;;;;;;;8.93;4.30;;;;;;;25.35;67.76;100353.56;1750063;82;20932;-41
2022/06/13 05:21:15;;;;;;;16.02;4.50;;;;;;;25.34;65.33;100351.42;1749879;82;20972;-41
2022/06/13 05:24:23;;;;;;;4.80;3.55;;;;;;;25.35;65.59;100346.95;1749916;82;20964;-41
2022/06/13 05:26:51;;;;;;;3.62;3.33;;;;;;;25.46;64.97;100350.89;1749565;81;21228;-40
2022/06/13 05:29:18;;;;;;;8.15;3.55;;;;;;;25.56;64.46;100361.59;1749800;82;21462;-42
2022/06/13 05:31:44;;;;;;;10.23;3.95;;;;;;;25.63;64.36;100360.09;1750007;82;20992;-42
2022/06/13 05:34:17;;;;;;;6.50;3.83;;;;;;;25.75;64.17;100351.59;1749973;82;20995;-41
2022/06/13 05:36:43;;;;;;;4.50;3.52;;;;;;;25.82;63.74;100350.09;1749183;82;20952;-41
2022/06/13 05:39:11;;;;;;;6.20;3.60;;;;;;;25.70;62.19;100347.65;1750201;82;22020;-42
2022/06/13 05:41:37;;;;;;;7.95;4.00;;;;;;;25.57;63.12;100350.48;1749923;82;20940;-41
2022/06/13 05:44:06;;;;;;;5.28;3.83;;;;;;;25.57;63.22;100349.16;1749898;82;20948;-41
2022/06/13 05:46:36;;;;;;;6.90;3.55;;;;;;;25.78;63.83;100347.36;1749737;80;20984;-42
2022/06/13 05:49:04;;;;;;;27.32;3.77;;;;;;;25.94;62.96;100346.06;1749887;82;21489;-42
2022/06/13 05:51:31;;;;;;;5.33;3.52;;;;;;;26.17;62.12;100348.58;1749790;81;21022;-43
2022/06/13 05:53:58;;;;;;;5.03;3.70;;;;;;;26.33;61.80;100340.95;1749932;82;20979;-42
2022/06/13 05:56:25;;;;;;;4.95;3.22;;;;;;;26.48;60.83;100345.91;1749932;81;20912;-41
2022/06/13 05:58:53;;;;;;;4.12;3.70;;;;;;;26.59;61.34;100343.13;1749878;81;20944;-42
2022/06/13 06:01:20;;;;;;;8.70;3.58;;;;;;;26.81;60.62;100350.52;1749925;82;20940;-42
2022/06/13 06:03:46;;;;;;;8.45;3.30;;;;;;;26.97;60.35;100348.69;1749955;82;21141;-42
2022/06/13 06:06:18;;;;;;;5.25;3.87;;;;;;;27.10;60.25;100345.76;1749601;82;20980;-43
2022/06/13 06:08:44;;;;;;;5.08;3.70;;;;;;;27.31;59.41;100345.64;1748960;82;21498;-42
2022/06/13 06:11:11;;;;;;;7.92;3.17;;;;;;;27.57;58.31;100349.08;1749924;82;20952;-42
2022/06/13 06:13:38;;;;;;;7.20;3.45;;;;;;;27.72;56.04;100335.33;1750091;81;20936;-42
2022/06/13 06:16:05;;;;;;;6.83;3.35;;;;;;;27.72;55.81;100333.52;1749721;81;21580;-42
2022/06/13 06:18:33;;;;;;;5.78;3.10;;;;;;;27.52;55.20;100341.52;1750274;82;20949;-42
2022/06/13 06:21:00;;;;;;;5.58;3.40;;;;;;;27.23;56.36;100335.71;1749984;82;20932;-42
2022/06/13 06:23:27;;;;;;;7.90;3.08;;;;;;;27.28;57.20;100344.56;1749754;82;20976;-42
2022/06/13 06:25:55;;;;;;;7.35;3.08;;;;;;;27.37;55.99;100338.42;1749676;82;20885;-42
2022/06/13 06:28:23;;;;;;;4.50;2.72;;;;;;;27.48;54.10;100340.10;1749852;82;21135;-43
2022/06/13 06:30:52;;;;;;;9.95;2.90;;;;;;;27.43;53.23;100340.16;1749713;81;20937;-42
2022/06/13 06:33:21;;;;;;;3.85;2.90;;;;;;;27.43;52.64;100335.70;1749819;82;20989;-42
2022/06/13 06:35:48;;;;;;;8.00;3.17;;;;;;;27.38;53.39;100341.91;1749958;82;21403;-42
2022/06/13 06:38:16;;;;;;;11.03;2.90;;;;;;;27.19;52.79;100338.30;1749981;81;20900;-43
2022/06/13 06:40:42;;;;;;;12.60;3.10;;;;;;;26.99;54.03;100340.59;1749935;82;21078;-43
2022/06/13 06:43:09;;;;;;;4.33;2.77;;;;;;;26.94;54.33;100343.17;1749853;81;20897;-43
2022/06/13 06:45:37;;;;;;;4.05;2.65;;;;;;;26.93;54.52;100339.32;1749963;82;20920;-44
2022/06/13 06:48:05;;;;;;;3.95;2.90;;;;;;;27.00;54.48;100330.32;1749990;82;21503;-43
2022/06/13 06:50:34;;;;;;;5.55;2.50;;;;;;;27.18;54.13;100341.09;1750048;82;21026;-43
2022/06/13 06:53:01;;;;;;;50.85;4.08;;;;;;;27.28;53.92;100335.77;1750114;82;21196;-43
2022/06/13 07:01:05;;;;;;;2.83;2.47;;;;;;;27.49;50.06;100337.79;1750358;82;21603;-41
2022/06/13 07:03:32;;;;;;;4.20;2.40;;;;;;;27.49;50.21;100336.94;1750040;82;21355;-42
2022/06/13 07:06:00;;;;;;;4.80;2.52;;;;;;;27.65;51.55;100341.22;1750084;82;21925;-42
2022/06/13 07:08:27;;;;;;;3.35;2.77;;;;;;;27.86;51.67;100336.21;1749939;81;21078;-42
2022/06/13 07:11:53;;;;;;;3.37;3.02;;;;;;;27.95;50.48;100343.81;1749905;82;20932;-43
2022/06/13 07:13:23;;;;;;;2.65;2.45;;;;;;;27.95;49.07;100339.32;1745879;82;20964;-42
2022/06/13 07:15:50;;;;;;;4.28;2.70;;;;;;;27.94;49.57;100346.95;1749997;82;20873;-43
2022/06/13 07:18:17;;;;;;;2.75;2.52;;;;;;;27.98;50.73;100346.19;1750048;82;22002;-43
2022/06/13 07:20:45;;;;;;;6.05;2.55;;;;;;;28.11;49.41;100344.53;1749988;82;20936;-43
2022/06/13 07:23:12;;;;;;;2.92;2.72;;;;;;;28.21;49.72;100344.02;1750112;81;20952;-43
2022/06/13 07:25:39;;;;;;;6.35;3.00;;;;;;;28.34;48.64;100340.20;1749762;81;21031;-41
2022/06/13 07:28:08;;;;;;;6.37;2.65;;;;;;;28.51;49.67;100341.23;1750086;82;20925;-41
2022/06/13 07:30:36;;;;;;;2.87;2.67;;;;;;;28.71;48.33;100348.59;1750272;82;22156;-41
2022/06/13 07:33:03;;;;;;;5.00;2.70;;;;;;;28.68;48.42;100343.09;1749893;82;20936;-41
2022/06/13 07:35:30;;;;;;;3.12;2.58;;;;;;;28.68;47.05;100347.09;1750017;82;20968;-42
2022/06/13 07:40:54;;;;;;;7.83;3.15;;;;;;;28.64;46.51;100349.68;1750264;82;20972;-42
2022/06/13 07:43:34;;;;;;;3.37;2.60;;;;;;;28.64;46.51;100349.68;1722347;82;21045;-42
2022/06/13 07:46:02;;;;;;;3.83;2.67;;;;;;;28.58;46.77;100347.62;1749920;81;20893;-42
2022/06/13 07:48:29;;;;;;;7.97;2.83;;;;;;;28.86;46.45;100344.95;1749863;81;20964;-42
2022/06/13 07:50:56;;;;;;;2.83;2.45;;;;;;;29.19;45.80;100348.43;1749994;82;20901;-42
2022/06/13 07:53:23;;;;;;;4.00;2.50;;;;;;;29.32;45.07;100348.05;1750111;82;20984;-42
2022/06/13 07:55:50;;;;;;;3.95;2.47;;;;;;;29.42;43.71;100347.48;1749982;82;21108;-42
2022/06/13 07:58:21;;;;;;;3.35;2.30;;;;;;;29.71;44.98;100345.05;1749937;82;20932;-43
2022/06/13 08:00:49;;;;;;;2.67;2.40;;;;;;;29.93;42.98;100341.48;1750031;82;20960;-42
2022/06/13 08:03:24;;;;;;;3.95;2.45;;;;;;;29.89;43.50;100340.13;1750289;82;20924;-42
2022/06/13 08:05:52;;;;;;;2.87;2.62;;;;;;;30.08;43.95;100339.13;1749977;81;20920;-43
2022/06/13 08:08:19;;;;;;;9.93;2.60;;;;;;;30.44;43.41;100340.74;1749959;82;21148;-42
2022/06/13 08:10:46;;;;;;;6.90;2.80;;;;;;;30.46;41.16;100344.94;1749853;82;20920;-42
2022/06/13 08:13:14;;;;;;;5.72;2.60;;;;;;;30.31;41.24;100335.86;1749770;82;20995;-42
2022/06/13 08:15:42;;;;;;;6.83;2.83;;;;;;;30.36;41.62;100342.39;1750010;82;21035;-42
2022/06/13 08:18:13;;;;;;;3.20;2.42;;;;;;;30.48;39.50;100338.11;1750303;82;20921;-42
2022/06/13 08:20:40;;;;;;;3.87;2.65;;;;;;;30.50;39.57;100337.45;1749854;82;21396;-42
2022/06/13 08:23:12;;;;;;;5.67;2.33;;;;;;;30.72;39.21;100337.88;1750105;82;21482;-42
2022/06/13 08:25:39;;;;;;;3.17;2.22;;;;;;;30.86;38.15;100333.22;1723133;81;20881;-43
2022/06/13 08:28:06;;;;;;;5.50;2.20;;;;;;;30.99;38.90;100336.73;1749935;82;20967;-42
2022/06/13 08:30:56;;;;;;;4.60;2.60;;;;;;;31.19;38.56;100335.94;1749878;82;21403;-43
2022/06/13 08:33:23;;;;;;;7.30;2.20;;;;;;;31.24;37.82;100336.78;1749965;81;21518;-42
2022/06/13 08:35:50;;;;;;;7.40;2.30;;;;;;;31.19;36.89;100336.42;1749928;82;20881;-42
2022/06/13 08:38:17;;;;;;;2.65;2.05;;;;;;;31.34;36.25;100335.28;1750004;82;20932;-41
2022/06/13 08:41:13;;;;;;;2.30;2.10;;;;;;;31.36;36.25;100335.95;1749953;81;21463;-42
2022/06/13 08:44:06;;;;;;;5.20;2.40;;;;;;;31.53;35.72;100342.95;1739827;81;21086;-42
2022/06/13 08:46:48;;;;;;;5.08;2.55;;;;;;;31.62;35.73;100338.92;1734923;82;21106;-42
2022/06/13 08:49:44;;;;;;;2.50;2.27;;;;;;;31.82;35.94;100340.26;1749763;82;20999;-42
2022/06/13 08:52:28;;;;;;;2.70;2.40;;;;;;;31.79;35.77;100335.74;1750022;82;20861;-42
2022/06/13 08:55:10;;;;;;;3.75;2.20;;;;;;;31.56;36.75;100328.39;1750022;82;20889;-42
2022/06/13 08:57:43;;;;;;;3.00;2.10;;;;;;;31.73;36.10;100325.21;1749968;80;21439;-42
2022/06/13 09:00:21;;;;;;;6.62;2.52;;;;;;;31.95;35.41;100323.67;1749080;82;21323;-42
2022/06/13 09:02:55;;;;;;;3.12;2.20;;;;;;;31.89;35.72;100320.84;1749778;82;20960;-41
2022/06/13 09:05:54;;;;;;;2.95;2.37;;;;;;;32.00;35.72;100324.98;1750105;82;21410;-42
2022/06/13 09:08:38;;;;;;;3.55;2.55;;;;;;;32.07;35.45;100324.62;1749987;82;20909;-42
2022/06/13 09:11:17;;;;;;;6.00;2.20;;;;;;;31.99;36.52;100322.83;1750003;82;21626;-43
2022/06/13 09:14:07;;;;;;;27.15;3.72;;;;;;;32.00;34.65;100328.52;1750002;81;20845;-43
2022/06/13 09:16:37;;;;;;;6.47;2.50;;;;;;;31.57;35.48;100332.73;1723934;82;21020;-42
2022/06/13 09:19:47;;;;;;;5.60;2.30;;;;;;;31.19;36.75;100330.59;1741971;82;20929;-42
2022/06/13 09:22:25;;;;;;;3.47;2.20;;;;;;;31.05;37.79;100326.72;1750146;80;20964;-43
2022/06/13 09:25:06;;;;;;;7.20;2.35;;;;;;;31.02;37.02;100320.89;1749893;82;20921;-43
2022/06/13 09:27:41;;;;;;;5.83;2.45;;;;;;;31.45;38.81;100322.08;1749716;82;21193;-43
2022/06/13 09:30:13;;;;;;;2.20;2.02;;;;;;;31.91;37.26;100324.17;1750110;81;21062;-43
2022/06/13 09:32:48;;;;;;;3.40;2.00;;;;;;;32.33;36.50;100317.69;1749835;81;20934;-43
2022/06/13 09:35:19;;;;;;;4.92;1.85;;;;;;;32.60;34.54;100320.89;1750070;80;28036;-43
2022/06/13 09:37:53;;;;;;;2.17;1.85;;;;;;;32.68;33.72;100312.80;1750118;81;21004;-42
2022/06/13 09:40:21;;;;;;;4.50;2.10;;;;;;;32.15;34.24;100311.72;1749747;82;21067;-43
2022/06/13 09:42:58;;;;;;;5.47;2.10;;;;;;;31.58;35.33;100324.23;1749839;82;21446;-43
2022/06/13 09:45:37;;;;;;;2.30;1.87;;;;;;;31.19;37.22;100319.90;1748958;82;20972;-43
2022/06/13 09:48:47;;;;;;;3.55;1.82;;;;;;;31.03;36.93;100315.88;1750200;82;20888;-43
2022/06/13 09:51:26;;;;;;;3.77;2.05;;;;;;;30.91;36.89;100310.84;1749731;82;20921;-43
2022/06/13 09:54:16;;;;;;;4.08;2.15;;;;;;;30.73;37.13;100311.50;1749336;82;21210;-43
2022/06/13 09:57:07;;;;;;;7.58;2.42;;;;;;;30.81;38.24;100304.83;1749953;82;20945;-43
2022/06/13 10:00:09;;;;;;;3.27;2.30;;;;;;;31.19;37.98;100307.02;1750077;82;20937;-43
2022/06/13 10:02:47;;;;;;;2.42;2.20;;;;;;;31.42;35.05;100304.52;1749744;81;20905;-43
2022/06/13 10:05:22;;;;;;;7.35;2.37;;;;;;;31.81;37.15;100304.30;1749951;82;20912;-43
2022/06/13 10:08:07;;;;;;;5.90;2.27;;;;;;;31.97;35.49;100315.48;1749979;81;21241;-43
2022/06/13 10:10:55;;;;;;;2.72;2.10;;;;;;;31.80;35.49;100314.67;1749971;81;21478;-43
2022/06/13 10:13:30;;;;;;;2.58;1.82;;;;;;;31.32;36.30;100320.73;1749538;82;20956;-43
2022/06/13 10:16:21;;;;;;;4.17;2.17;;;;;;;30.75;37.97;100324.19;1750119;82;20979;-43
2022/06/13 10:19:04;;;;;;;2.55;2.20;;;;;;;30.33;38.96;100314.70;1741240;82;21467;-43
2022/06/13 10:21:56;;;;;;;3.98;2.02;;;;;;;30.00;40.20;100315.02;1749825;81;21238;-42
2022/06/13 10:24:52;;;;;;;2.60;1.90;;;;;;;29.65;40.83;100314.50;1748680;82;20885;-43
2022/06/13 10:27:47;;;;;;;4.97;2.00;;;;;;;29.50;40.50;100309.39;1750178;82;21008;-43
2022/06/13 10:30:19;;;;;;;3.33;1.90;;;;;;;29.50;39.04;100312.91;1750197;82;20889;-42
2022/06/13 10:33:17;;;;;;;2.12;2.00;;;;;;;29.39;37.28;100304.64;1749846;81;21460;-42
2022/06/13 10:36:28;;;;;;;1.82;1.72;;;;;;;29.56;38.57;100310.12;1749947;81;21253;-42
2022/06/13 10:39:06;;;;;;;4.90;1.80;;;;;;;29.96;37.03;100300.67;1749934;81;20983;-42
2022/06/13 10:42:36;;;;;;;7.53;2.17;;;;;;;30.84;37.15;100296.48;1785219;79;22645;-42
2022/06/13 10:45:06;;;;;;;8.68;2.83;;;;;;;31.33;37.87;100297.52;1749824;82;20964;-43
2022/06/13 10:47:53;;;;;;;3.30;1.82;;;;;;;31.87;35.48;100304.98;1720669;82;21798;-42
2022/06/13 10:50:28;;;;;;;3.22;1.60;;;;;;;32.29;33.73;100296.27;1749861;80;20925;-43
2022/06/13 10:52:58;;;;;;;;;;;;;;;32.44;32.78;100288.84;1751877;82;20884;-43
2022/06/13 10:55:25;;;;;;;3.77;1.90;;;;;;;32.49;34.56;100284.63;1749910;81;20351;-43
2022/06/13 10:58:16;;;;;;;7.50;1.82;;;;;;;32.75;32.53;100286.66;1749822;81;20991;-43
2022/06/13 11:01:07;;;;;;;54.67;3.75;;;;;;;32.80;33.04;100284.27;1749895;82;21409;-43
2022/06/13 11:03:35;;;;;;;2.92;2.08;;;;;;;32.94;32.03;100282.16;1749678;81;20991;-43
2022/06/13 11:06:07;;;;;;;12.73;1.98;;;;;;;32.89;31.99;100287.23;1749777;81;21051;-43
2022/06/13 11:08:34;;;;;;;2.45;1.60;;;;;;;32.88;32.28;100278.05;1749676;82;21467;-42
2022/06/13 11:11:04;;;;;;;5.22;1.75;;;;;;;32.91;32.43;100277.16;1720607;82;20936;-43
2022/06/13 11:13:36;;;;;;;1.82;1.72;;;;;;;32.68;32.87;100277.97;1749716;81;21134;-43
2022/06/13 11:24:45;;;;;;;3.80;1.95;;;;;;;33.28;32.13;100271.17;1750012;82;21022;-43
2022/06/13 11:27:39;;;;;;;3.75;1.40;;;;;;;33.42;30.83;100266.84;1749973;82;21343;-42
2022/06/13 11:30:29;;;;;;;4.28;1.47;;;;;;;33.34;29.26;100263.73;1749687;80;20936;-44
2022/06/13 11:33:04;;;;;;;2.67;1.40;;;;;;;33.39;29.25;100260.83;1749867;82;20924;-43
2022/06/13 11:35:50;;;;;;;29.67;3.33;;;;;;;33.41;31.02;100261.97;1749930;81;20936;-43
2022/06/13 11:38:30;;;;;;;6.35;1.87;;;;;;;33.46;32.66;100259.59;1749768;82;21590;-43
2022/06/13 11:41:25;;;;;;;2.75;1.62;;;;;;;33.33;30.55;100254.84;1746960;81;21133;-41
2022/06/13 11:44:04;;;;;;;6.45;1.40;;;;;;;33.10;30.78;100254.91;1736464;82;20893;-43
2022/06/13 11:46:35;;;;;;;5.72;1.40;;;;;;;32.98;32.22;100257.19;1736534;82;20909;-42
2022/06/13 11:49:16;;;;;;;15.08;1.85;;;;;;;32.73;32.41;100255.20;1736535;82;20969;-42
2022/06/13 11:52:13;;;;;;;1.95;1.20;;;;;;;32.62;32.66;100251.91;1736135;82;21443;-42
2022/06/13 11:54:55;;;;;;;8.98;1.47;;;;;;;32.79;31.92;100249.93;1735980;82;21879;-43
2022/06/13 11:57:37;;;;;;;2.92;1.55;;;;;;;32.96;30.80;100247.98;1736033;82;20965;-42
2022/06/13 12:00:20;;;;;;;3.27;1.40;;;;;;;32.71;30.23;100247.33;1736126;81;20949;-43
2022/06/13 12:02:55;;;;;;;1.35;1.25;;;;;;;32.34;31.22;100247.59;1736018;82;20965;-43
2022/06/13 12:05:35;;;;;;;2.90;1.37;;;;;;;31.87;32.05;100250.13;1736164;82;21015;-42
2022/06/13 12:08:23;;;;;;;3.02;1.30;;;;;;;31.63;33.77;100240.31;1736012;81;21059;-42
2022/06/13 12:11:18;;;;;;;7.35;1.60;;;;;;;31.88;32.46;100230.89;1735969;82;20969;-43
2022/06/13 12:13:47;;;;;;;1.42;1.32;;;;;;;32.15;30.28;100228.75;1735961;82;21483;-43
2022/06/13 12:16:39;;;;;;;10.48;1.50;;;;;;;32.14;30.14;100227.08;1736029;82;21336;-42
2022/06/13 12:19:33;;;;;;;1.45;1.20;;;;;;;32.04;30.90;100229.48;1736090;82;20909;-44
2022/06/13 12:22:12;;;;;;;1.22;1.07;;;;;;;31.94;30.56;100223.00;1736227;82;21288;-42
2022/06/13 12:25:07;;;;;;;1.85;1.00;;;;;;;31.73;30.90;100216.89;1736004;82;20917;-43
2022/06/13 12:27:53;;;;;;;1.92;1.02;;;;;;;31.42;31.20;100220.83;1736207;82;21467;-43
2022/06/13 12:30:47;;;;;;;4.83;1.27;;;;;;;31.06;33.13;100220.17;1736199;82;20968;-41